createdAt,value
2019-04-23T04:40:29.030Z,10.85
2019-04-23T04:47:47.987Z,12.17
2019-04-23T04:50:26.273Z,9.57
2019-04-23T04:57:58.662Z,11.20
2019-04-23T05:00:43.150Z,10.70
2019-04-23T05:06:01.459Z,10.47
2019-04-23T05:10:51.642Z,16.77
2019-04-23T05:20:53.207Z,9.08
2019-04-23T05:23:27.001Z,7.55
2019-04-23T05:25:49.745Z,9.67
2019-04-23T05:28:39.736Z,12.23
2019-04-23T05:33:24.783Z,10.23
2019-04-23T05:38:37.415Z,12.18
2019-04-23T05:41:03.760Z,9.63
2019-04-23T05:43:34.288Z,8.80
2019-04-23T05:46:07.275Z,10.05
2019-04-23T05:48:34.702Z,10.47
2019-04-23T05:51:16.255Z,10.15
2019-04-23T05:53:50.939Z,9.70
2019-04-23T05:58:37.193Z,10.72
2019-04-23T06:01:37.936Z,11.12
2019-04-23T06:03:56.721Z,10.25
2019-04-23T06:06:29.804Z,7.67
2019-04-23T06:08:56.386Z,9.78
2019-04-23T06:11:28.478Z,12.70
2019-04-23T06:14:02.024Z,9.93
2019-04-23T06:16:31.406Z,8.55
2019-04-23T06:19:02.756Z,11.08
2019-04-23T06:21:33.990Z,8.88
2019-04-23T06:24:09.820Z,7.53
2019-04-23T06:26:42.966Z,7.65
2019-04-23T06:29:10.299Z,8.58
2019-04-23T06:31:38.026Z,10.30
2019-04-23T06:34:12.380Z,10.18
2019-04-23T06:36:37.079Z,11.87
2019-04-23T06:39:02.933Z,15.88
2019-04-23T06:49:23.689Z,9.18
2019-04-23T06:52:05.944Z,10.75
2019-04-23T06:54:24.440Z,8.68
2019-04-23T06:59:24.588Z,11.90
2019-04-23T07:04:39.317Z,10.70
2019-04-23T07:07:25.683Z,7.80
2019-04-23T07:09:26.299Z,12.00
2019-04-23T07:12:07.670Z,7.53
2019-04-23T07:14:47.742Z,14.23
2019-04-23T07:17:02.664Z,10.97
2019-04-23T07:22:06.640Z,20.67
2019-04-23T07:24:32.867Z,8.50
2019-04-23T07:27:06.963Z,16.67
2019-04-23T07:29:58.111Z,9.50
2019-04-23T07:32:15.137Z,8.60
2019-04-23T07:35:01.047Z,10.35
2019-04-23T07:42:55.158Z,9.07
2019-04-23T07:50:49.429Z,14.60
2019-04-23T07:53:23.380Z,12.82
2019-04-23T07:55:56.831Z,15.93
2019-04-23T08:01:03.641Z,14.75
2019-04-23T08:03:22.784Z,14.90
2019-04-23T08:06:07.247Z,14.87
2019-04-23T08:08:24.584Z,14.68
2019-04-23T08:21:18.157Z,20.02
2019-04-23T08:26:59.100Z,17.42
2019-04-23T08:29:30.910Z,13.70
2019-04-23T08:32:12.054Z,16.80
2019-04-23T08:39:43.177Z,14.30
2019-04-23T08:45:22.701Z,11.48
2019-04-23T08:50:46.603Z,14.45
2019-04-23T08:55:50.054Z,15.72
2019-04-23T08:58:27.372Z,12.60
2019-04-23T09:06:00.673Z,30.48
2019-04-23T09:11:04.654Z,14.35
2019-04-23T09:16:15.275Z,13.73
2019-04-23T09:18:33.112Z,11.00
2019-04-23T09:21:03.602Z,21.97
2019-04-23T09:23:42.078Z,27.50
2019-04-23T09:26:02.213Z,32.25
2019-04-23T09:28:53.231Z,20.72
2019-04-23T09:31:24.959Z,15.90
2019-04-23T09:36:40.590Z,10.32
2019-04-23T09:39:32.990Z,12.25
2019-04-23T09:42:12.079Z,10.23
2019-04-23T09:44:58.555Z,17.20
2019-04-23T09:47:48.855Z,18.12
2019-04-23T09:50:15.624Z,14.83
2019-04-23T09:52:48.834Z,20.45
2019-04-23T09:55:22.136Z,18.57
2019-04-23T09:57:51.540Z,16.80
2019-04-23T10:00:25.459Z,13.10
2019-04-23T10:02:34.312Z,11.73
2019-04-23T10:05:06.046Z,14.55
2019-04-23T10:07:34.831Z,17.33
2019-04-23T10:09:55.411Z,12.73
2019-04-23T10:12:26.265Z,11.45
2019-04-23T10:15:05.442Z,14.95
2019-04-23T10:17:28.376Z,16.23
2019-04-23T10:19:58.308Z,24.70
2019-04-23T10:22:29.481Z,13.85
2019-04-23T10:24:59.439Z,14.65
2019-04-23T10:27:29.470Z,20.92
2019-04-23T10:29:59.787Z,15.80
2019-04-23T10:32:29.833Z,24.13
2019-04-23T10:35:10.399Z,14.80
2019-04-23T10:37:40.285Z,29.35
2019-04-23T10:40:05.726Z,18.27
2019-04-23T10:42:35.973Z,29.05
2019-04-23T10:45:31.170Z,21.93
2019-04-23T10:48:41.498Z,23.73
2019-04-23T10:51:04.465Z,23.83
2019-04-23T10:53:42.826Z,20.23
2019-04-23T10:56:21.242Z,22.52
2019-04-23T10:58:41.104Z,21.40
2019-04-23T11:01:16.372Z,20.75
2019-04-23T11:04:02.295Z,16.97
2019-04-23T11:06:16.569Z,19.50
2019-04-23T11:08:55.920Z,24.40
2019-04-23T11:11:21.900Z,20.02
2019-04-23T11:13:53.081Z,19.20
2019-04-23T11:16:45.898Z,18.27
2019-04-23T11:21:27.661Z,21.90
2019-04-23T11:24:01.079Z,20.68
2019-04-23T11:29:06.983Z,22.55
2019-04-23T11:31:39.260Z,24.05
2019-04-23T11:39:21.671Z,24.18
2019-04-23T11:41:47.134Z,17.73
2019-04-23T11:44:20.673Z,21.15
2019-04-23T11:46:57.439Z,17.37
2019-04-23T11:54:17.259Z,25.88
2019-04-23T11:57:14.372Z,15.70
2019-04-23T11:59:29.329Z,15.93
2019-04-23T12:01:56.507Z,30.20
2019-04-23T12:05:17.146Z,26.48
2019-04-23T12:07:49.904Z,21.60
2019-04-23T12:10:39.125Z,23.62
2019-04-23T12:13:07.510Z,23.10
2019-04-23T12:18:10.982Z,16.60
2019-04-23T12:23:38.208Z,22.95
2019-04-23T12:28:18.021Z,22.07
2019-04-23T12:30:48.675Z,19.40
2019-04-23T12:33:22.142Z,15.30
2019-04-23T12:35:47.161Z,20.15
2019-04-23T12:38:21.914Z,23.00
2019-04-23T12:40:51.392Z,33.23
2019-04-23T12:43:18.918Z,24.92
2019-04-23T12:45:47.046Z,17.23
2019-04-23T12:48:36.526Z,20.50
2019-04-23T12:51:09.311Z,29.27
2019-04-23T12:56:06.993Z,23.67
2019-04-23T12:58:27.019Z,16.87
2019-04-23T13:01:03.953Z,14.73
2019-04-23T13:03:31.429Z,20.92
2019-04-23T13:05:53.042Z,13.00
2019-04-23T13:08:41.368Z,11.73
2019-04-23T13:11:06.882Z,13.73
2019-04-23T13:13:37.762Z,14.40
2019-04-23T13:16:12.385Z,15.50
2019-04-23T13:18:39.494Z,15.38
2019-04-23T13:21:21.797Z,11.78
2019-04-23T13:23:39.177Z,13.70
2019-04-23T13:26:16.054Z,15.73
2019-04-23T13:28:47.000Z,22.20
2019-04-23T13:31:15.035Z,17.17
2019-04-23T13:34:04.320Z,15.35
2019-04-23T13:36:32.817Z,14.73
2019-04-23T13:38:56.725Z,12.77
2019-04-23T13:44:08.787Z,16.60
2019-04-23T13:46:20.024Z,17.75
2019-04-23T13:48:58.343Z,12.73
2019-04-23T13:54:09.731Z,19.62
2019-04-23T13:59:18.159Z,14.03
2019-04-23T14:04:26.965Z,13.78
2019-04-23T14:06:49.511Z,12.80
2019-04-23T14:09:31.154Z,14.98
2019-04-23T14:11:46.596Z,14.03
2019-04-23T14:14:41.786Z,15.08
2019-04-23T14:17:00.250Z,12.47
2019-04-23T14:19:26.161Z,15.55
2019-04-23T14:22:18.442Z,16.67
2019-04-23T14:24:38.896Z,16.12
2019-04-23T14:27:10.884Z,23.30
2019-04-23T14:29:43.614Z,16.17
2019-04-23T14:32:08.922Z,14.80
2019-04-23T14:34:38.430Z,20.62
2019-04-23T14:39:40.541Z,14.28
2019-04-23T14:42:20.718Z,20.45
2019-04-23T14:44:52.907Z,11.80
2019-04-23T14:47:24.007Z,18.82
2019-04-23T14:50:17.384Z,16.07
2019-04-23T14:52:30.950Z,14.18
2019-04-23T14:58:00.948Z,17.12
2019-04-23T15:02:38.261Z,12.15
2019-04-23T15:07:37.509Z,16.42
2019-04-23T15:10:18.463Z,15.38
2019-04-23T15:12:40.242Z,20.02
2019-04-23T15:17:40.209Z,15.53
2019-04-23T15:20:25.062Z,15.58
2019-04-23T15:23:14.380Z,24.90
2019-04-23T15:27:45.618Z,16.60
2019-04-23T15:30:17.577Z,16.67
2019-04-23T15:33:21.905Z,16.93
2019-04-23T15:35:59.781Z,16.00
2019-04-23T15:40:27.031Z,15.10
2019-04-23T15:43:10.317Z,16.77
2019-04-23T15:45:41.432Z,21.55
2019-04-23T15:50:40.117Z,23.85
2019-04-23T15:53:03.195Z,16.95
2019-04-23T15:55:44.422Z,13.10
2019-04-23T15:58:15.808Z,16.55
2019-04-23T16:00:39.839Z,22.25
2019-04-23T16:02:45.320Z,16.87
2019-04-23T16:05:15.860Z,18.02
2019-04-23T16:08:06.105Z,17.20
2019-04-23T16:10:54.551Z,17.75
2019-04-23T16:13:37.398Z,18.42
2019-04-23T16:15:51.605Z,12.45
2019-04-23T16:18:43.954Z,13.32
2019-04-23T16:21:04.958Z,14.05
2019-04-23T16:23:38.238Z,19.48
2019-04-23T16:26:08.751Z,13.83
2019-04-23T16:28:42.186Z,13.85
2019-04-23T16:31:15.238Z,13.72
2019-04-23T16:33:47.941Z,16.20
2019-04-23T16:36:19.663Z,18.50
2019-04-23T16:38:51.994Z,14.80
2019-04-23T16:54:01.793Z,15.45
2019-04-23T16:59:08.703Z,20.52
2019-04-23T17:01:26.387Z,16.30
2019-04-23T17:04:08.286Z,19.75
2019-04-23T17:06:30.925Z,15.65
2019-04-23T17:08:59.866Z,20.37
2019-04-23T17:11:33.943Z,14.25
2019-04-23T17:14:09.183Z,14.03
2019-04-23T17:19:11.555Z,18.05
2019-04-23T17:21:38.335Z,21.02
2019-04-23T17:27:05.454Z,17.75
2019-04-23T17:29:15.169Z,23.18
2019-04-23T17:31:45.529Z,13.65
2019-04-23T17:34:23.735Z,22.73
2019-04-23T17:37:07.158Z,13.80
2019-04-23T17:39:52.990Z,16.37
2019-04-23T17:42:48.330Z,14.80
2019-04-23T17:48:13.485Z,20.55
2019-04-23T17:51:02.462Z,17.65
2019-04-23T17:53:42.501Z,21.37
2019-04-23T17:58:46.443Z,19.34
2019-04-23T18:01:20.376Z,13.78
2019-04-23T18:06:32.155Z,19.05
2019-04-23T18:13:57.186Z,18.40
2019-04-23T18:16:35.123Z,18.62
2019-04-23T18:19:05.712Z,15.48
2019-04-23T18:22:00.169Z,16.80
2019-04-23T18:24:44.909Z,20.68
2019-04-23T18:30:11.799Z,18.02
2019-04-23T18:33:40.718Z,22.02
2019-04-23T18:35:44.089Z,20.20
2019-04-23T18:38:14.608Z,19.35
2019-04-23T18:40:54.627Z,16.48
2019-04-23T18:43:23.031Z,20.47
2019-04-23T18:45:45.397Z,18.87
2019-04-23T18:56:11.177Z,20.40
2019-04-23T18:58:52.007Z,16.23
2019-04-23T19:09:32.242Z,21.55
2019-04-23T19:12:26.857Z,25.50
2019-04-23T19:14:40.812Z,25.30
2019-04-23T19:17:42.181Z,22.05
2019-04-23T19:19:42.261Z,22.48
2019-04-23T19:24:38.975Z,27.27
2019-04-23T19:27:16.841Z,24.37
2019-04-23T19:29:47.928Z,21.37
2019-04-23T19:32:06.377Z,24.55
2019-04-23T19:37:15.483Z,21.95
2019-04-23T19:42:36.766Z,22.77
2019-04-23T19:44:47.573Z,19.40
2019-04-23T19:47:25.733Z,22.90
2019-04-23T19:50:04.766Z,20.67
2019-04-23T19:52:38.633Z,20.85
2019-04-23T19:55:04.896Z,20.88
2019-04-23T19:57:33.950Z,19.17
2019-04-23T20:00:11.238Z,24.40
2019-04-23T20:02:38.358Z,21.53
2019-04-23T20:05:17.404Z,25.82
2019-04-23T20:07:44.593Z,21.25
2019-04-23T20:09:57.021Z,20.48
2019-04-23T20:12:38.747Z,20.92
2019-04-23T20:15:13.513Z,20.85
2019-04-23T20:17:51.389Z,23.18
2019-04-23T20:20:04.439Z,23.92
2019-04-23T20:22:52.104Z,19.77
2019-04-23T20:25:44.176Z,22.20
2019-04-23T20:30:49.445Z,19.77
2019-04-23T20:31:44.985Z,20.47
2019-04-23T20:35:53.986Z,20.25
2019-04-23T20:38:33.320Z,23.98
2019-04-23T20:43:32.688Z,21.48
2019-04-23T20:45:58.970Z,21.45
2019-04-23T20:48:44.737Z,22.15
2019-04-23T20:50:58.903Z,20.23
2019-04-23T20:53:31.353Z,19.23
2019-04-23T20:56:10.048Z,20.30
2019-04-23T20:58:48.057Z,22.87
2019-04-23T21:03:52.017Z,18.85
2019-04-23T21:06:15.006Z,17.95
2019-04-23T21:09:13.318Z,20.23
2019-04-23T21:11:36.259Z,18.20
2019-04-23T21:14:12.470Z,17.15
2019-04-23T21:16:22.762Z,20.23
2019-04-23T21:18:55.006Z,22.27
2019-04-23T21:21:25.916Z,20.30
2019-04-23T21:26:31.269Z,22.02
2019-04-23T21:28:57.140Z,18.95
2019-04-23T21:36:48.203Z,15.85
2019-04-23T21:39:38.653Z,21.75
2019-04-23T21:42:17.818Z,13.70
2019-04-23T21:44:35.464Z,16.00
2019-04-23T21:47:30.683Z,13.30
2019-04-23T21:50:06.478Z,15.05
2019-04-23T21:52:16.439Z,15.93
2019-04-23T21:54:47.233Z,14.85
2019-04-23T21:57:10.357Z,16.55
2019-04-23T21:59:53.283Z,16.62
2019-04-23T22:02:23.639Z,12.40
2019-04-23T22:05:01.019Z,15.50
2019-04-23T22:07:21.497Z,14.10
2019-04-23T22:09:56.320Z,14.75
2019-04-23T22:14:53.780Z,14.50
2019-04-23T22:17:24.955Z,14.18
2019-04-23T22:20:07.527Z,14.87
2019-04-23T22:22:34.303Z,12.60
2019-04-23T22:24:57.520Z,12.13
2019-04-23T22:27:28.194Z,15.63
2019-04-23T22:30:01.266Z,13.50
2019-04-23T22:32:40.738Z,13.68
2019-04-23T22:35:07.341Z,14.43
2019-04-23T22:37:40.516Z,12.47
2019-04-23T22:47:39.470Z,11.10
2019-04-23T22:55:15.493Z,10.90
2019-04-23T23:03:06.413Z,14.60
2019-04-23T23:05:56.213Z,12.43
2019-04-23T23:08:13.392Z,12.53
2019-04-23T23:18:17.872Z,10.18
2019-04-23T23:20:52.644Z,10.83
2019-04-23T23:23:17.784Z,13.47
2019-04-23T23:25:55.406Z,13.25
2019-04-23T23:31:04.099Z,16.30
2019-04-23T23:33:26.938Z,12.20
2019-04-23T23:36:03.221Z,12.05
2019-04-23T23:38:34.759Z,11.35
2019-04-23T23:43:29.648Z,12.50
2019-04-23T23:46:17.276Z,9.08
2019-04-23T23:48:35.973Z,10.18
2019-04-23T23:51:09.875Z,8.78
2019-04-23T23:56:10.832Z,9.08
2019-04-23T23:58:55.267Z,12.60
